Aérodrome :
LOGIN :

S'inscrire | Disclaimer

   EN    FR    IT 

 










Légende :    VFR   VFR Marginal   IFR   IFR Intensif   IFR Très Intensif
Visi : 
Plafond : 
>= 8 km
>= 3000ft
5 à 8 km
1000 à 3000 ft
1500m à 5 km
500 à 1000 ft
800 à 1500m
200 à 500 ft
< 800m
< 200 ft
Symboles :   Orages  Brouillard  Fortes neiges  Fortes précipitations  Vent > 20 kt
SIGMETs :   Divers  Orages  Givrage  Turbulence  Onde Orograph.  Cendres Volcan.






- Altitude de l'aérodrome : 195 ft


LFMY - Salon de Provence

DERNIER METAR :
  • 281200Z AUTO 25015KT 220V290 CAVOK 14/06 Q1014 TEMPO 25015G25KT

METARs EXPIRÉS :
  • 281130Z AUTO 25009KT 210V280 CAVOK 14/07 Q1015 TEMPO 25015G25KT
  • 281100Z AUTO 26008KT 220V310 CAVOK 13/07 Q1015 NOSIG
  • 281030Z AUTO 23008KT 190V260 CAVOK 12/08 Q1016 NOSIG
  • 281000Z AUTO 25003KT 210V280 CAVOK 11/09 Q1016 NOSIG
  • 280930Z AUTO VRB02KT CAVOK 10/09 Q1016 BECMG 24012KT

TAF TAF LFMY
Valide du 28 à 09h jusqu'au 29 à 09h UTC


280800Z 2809/2909 21003KT 9999 BKN050
BECMG 2809/2811 24012KT
TEMPO 2813/2821 25015G25KT



MET'MAP, la Météo Aéronautique d'un coup d'oeil ! - Copyright ORBIFLY Décembre 2007 - Disclaimer

ORBIFLY MET'MAP TEAM :

Programmation & Développement : Alexandra Zaïnal
Sur une idée originale de : Baudouin d'Aumeries
Assistance à la programmation : Marc-Olivier Méhu
Soutien technique & logistique : Manuel Goepfert

Contact : metmap@orbifly.com




SOURCES & CREDITS :

   NOAA